Time;durP1;ratioP1;P1;durP2;ratioP2;P2;SDS_P1;SDS_P2;PMS_P1;PMS_P2;Temp;Humidity;BMP_temperature;BMP_pressure;BME280_temperature;BME280_humidity;BME280_pressure;Samples;Min_cycle;Max_cycle;Signal;HPM_P1;HPM_P2
2021/09/01 00:00:13;;;;;;;5.83;4.70;;;17.10;99.90;;;;;;4998379;28;20273;-77
2021/09/01 00:02:39;;;;;;;8.20;4.60;;;17.10;99.90;;;;;;5014926;28;20177;-78
2021/09/01 00:05:06;;;;;;;5.90;4.07;;;17.10;99.90;;;;;;4997244;28;20601;-78
2021/09/01 00:07:32;;;;;;;8.40;4.47;;;17.10;99.90;;;;;;4996686;28;20588;-78
2021/09/01 00:09:58;;;;;;;9.70;4.07;;;17.10;99.90;;;;;;4996975;28;20597;-78
2021/09/01 00:12:24;;;;;;;6.23;4.13;;;17.00;99.90;;;;;;4996765;28;20202;-78
2021/09/01 00:14:49;;;;;;;12.93;4.60;;;17.00;99.90;;;;;;5014247;28;20198;-78
2021/09/01 00:17:15;;;;;;;9.97;5.10;;;17.00;99.90;;;;;;5013949;28;20569;-77
2021/09/01 00:19:41;;;;;;;6.30;4.27;;;17.00;99.90;;;;;;4996476;28;20637;-78
2021/09/01 00:22:06;;;;;;;10.37;5.00;;;17.00;99.90;;;;;;4996772;28;20189;-78
2021/09/01 00:24:32;;;;;;;7.90;4.47;;;16.90;99.90;;;;;;5014142;28;20254;-77
2021/09/01 00:26:58;;;;;;;7.30;4.37;;;16.90;99.90;;;;;;4996144;28;20205;-78
2021/09/01 00:29:23;;;;;;;7.57;5.17;;;16.90;99.90;;;;;;4996593;28;20213;-78
2021/09/01 00:31:49;;;;;;;8.10;4.83;;;16.90;99.90;;;;;;5013884;28;20194;-78
2021/09/01 00:34:15;;;;;;;9.43;4.60;;;16.90;99.90;;;;;;4996271;28;20198;-78
2021/09/01 00:36:41;;;;;;;6.83;4.20;;;16.80;99.90;;;;;;4995887;28;20162;-78
2021/09/01 00:39:07;;;;;;;11.87;5.40;;;16.80;99.90;;;;;;4996490;28;20604;-78
2021/09/01 00:41:33;;;;;;;5.90;4.90;;;16.80;99.90;;;;;;4996176;28;20972;-78
2021/09/01 00:44:17;;;;;;;9.07;5.10;;;16.90;99.90;;;;;;5013856;28;20630;-78
2021/09/01 00:46:45;;;;;;;4.70;3.97;;;16.90;99.90;;;;;;5013469;28;20502;-78
2021/09/01 00:49:12;;;;;;;10.67;5.50;;;17.00;99.90;;;;;;5013758;28;20562;-78
2021/09/01 00:51:38;;;;;;;7.10;5.23;;;17.00;99.90;;;;;;5013604;28;20608;-78
2021/09/01 00:54:04;;;;;;;8.60;5.30;;;17.00;99.90;;;;;;5013448;28;20651;-78
2021/09/01 00:56:30;;;;;;;9.50;6.27;;;17.10;99.90;;;;;;4995513;28;20612;-78
2021/09/01 00:58:56;;;;;;;9.37;5.57;;;17.10;99.90;;;;;;5013433;28;20608;-78
2021/09/01 01:01:21;;;;;;;10.10;5.57;;;17.10;99.90;;;;;;5012349;28;20166;-78
2021/09/01 01:03:48;;;;;;;7.07;5.73;;;17.20;99.90;;;;;;5013282;28;20933;-78
2021/09/01 01:06:16;;;;;;;10.00;6.10;;;17.20;99.90;;;;;;4994971;28;20573;-78
2021/09/01 01:08:41;;;;;;;9.67;5.70;;;17.30;99.90;;;;;;4995667;28;20576;-78
2021/09/01 01:11:12;;;;;;;8.10;5.70;;;17.30;99.90;;;;;;5013051;28;21148;-78
2021/09/01 01:13:38;;;;;;;10.57;5.60;;;17.30;99.90;;;;;;5012929;28;20194;-78
2021/09/01 01:16:05;;;;;;;10.20;6.20;;;17.40;99.90;;;;;;5012830;28;21026;-77
2021/09/01 01:18:30;;;;;;;9.70;6.07;;;17.40;99.90;;;;;;5012904;28;21055;-78
2021/09/01 01:20:56;;;;;;;12.37;6.10;;;17.40;99.90;;;;;;5012945;28;20652;-78
2021/09/01 01:23:23;;;;;;;10.20;6.70;;;17.40;99.90;;;;;;4995330;28;20174;-78
2021/09/01 01:25:50;;;;;;;7.37;5.77;;;17.50;99.90;;;;;;4994985;28;20784;-78
2021/09/01 01:28:16;;;;;;;8.93;5.70;;;17.50;99.90;;;;;;5012947;28;20612;-78
2021/09/01 01:30:42;;;;;;;10.80;6.63;;;17.50;99.90;;;;;;5012973;28;20572;-78
2021/09/01 01:33:08;;;;;;;11.17;7.50;;;17.60;99.90;;;;;;5012688;28;21043;-78
2021/09/01 01:35:42;;;;;;;7.80;5.80;;;17.60;99.90;;;;;;5012386;28;20601;-78
2021/09/01 01:38:16;;;;;;;11.80;5.70;;;17.60;99.90;;;;;;5012643;28;20937;-78
2021/09/01 01:40:42;;;;;;;11.07;6.23;;;17.60;99.90;;;;;;5012687;28;20576;-77
2021/09/01 01:43:09;;;;;;;8.20;6.60;;;17.70;99.90;;;;;;5012641;28;20588;-78
2021/09/01 01:45:45;;;;;;;10.43;5.93;;;17.70;99.90;;;;;;5012218;28;20624;-77
2021/09/01 01:48:13;;;;;;;9.63;6.10;;;17.70;99.90;;;;;;4994962;28;20607;-78
2021/09/01 01:50:40;;;;;;;9.13;6.10;;;17.70;99.90;;;;;;5012590;28;20607;-78
2021/09/01 01:53:07;;;;;;;6.30;4.87;;;17.80;99.90;;;;;;5012254;28;20623;-78
2021/09/01 01:55:33;;;;;;;9.77;6.17;;;17.80;99.90;;;;;;5012025;28;20585;-78
2021/09/01 01:58:00;;;;;;;10.20;5.73;;;17.80;99.90;;;;;;4994748;28;20954;-78
2021/09/01 02:00:25;;;;;;;10.07;6.67;;;17.80;99.90;;;;;;4994248;28;20584;-77
2021/09/01 02:02:51;;;;;;;8.97;5.17;;;17.80;99.90;;;;;;4994655;28;20569;-77
2021/09/01 02:05:17;;;;;;;7.10;5.20;;;17.80;99.90;;;;;;5012239;28;20252;-78
2021/09/01 02:07:43;;;;;;;11.43;5.67;;;17.90;99.90;;;;;;5011904;28;20945;-78
2021/09/01 02:10:11;;;;;;;7.03;5.20;;;17.90;99.90;;;;;;5012146;28;20557;-78
2021/09/01 02:12:38;;;;;;;6.87;5.67;;;18.00;99.90;;;;;;5011637;28;20969;-78
2021/09/01 02:15:05;;;;;;;7.73;5.30;;;18.00;99.90;;;;;;5011965;28;20601;-78
2021/09/01 02:17:32;;;;;;;8.80;5.80;;;18.00;99.90;;;;;;5011814;28;21068;-78
2021/09/01 02:19:59;;;;;;;9.27;6.10;;;17.90;99.90;;;;;;4994479;28;20569;-77
2021/09/01 02:22:25;;;;;;;11.83;6.80;;;18.00;99.90;;;;;;5011938;28;20988;-78
2021/09/01 02:24:51;;;;;;;11.77;6.83;;;18.00;99.90;;;;;;4994077;28;20637;-78
2021/09/01 02:27:17;;;;;;;8.20;6.47;;;18.00;99.90;;;;;;5011692;28;20202;-78
2021/09/01 02:29:43;;;;;;;12.60;6.60;;;18.00;99.90;;;;;;5011708;28;20557;-78
2021/09/01 02:32:09;;;;;;;8.30;6.90;;;18.10;99.90;;;;;;5011744;28;20612;-78
2021/09/01 02:34:35;;;;;;;8.47;6.10;;;18.10;99.90;;;;;;5011487;28;20293;-78
2021/09/01 02:37:01;;;;;;;10.23;6.70;;;18.10;99.90;;;;;;5010168;28;20224;-77
2021/09/01 02:39:26;;;;;;;9.87;6.60;;;18.10;99.90;;;;;;5011465;28;20171;-76
2021/09/01 02:41:53;;;;;;;13.30;6.63;;;18.10;99.90;;;;;;5011602;28;20171;-76
2021/09/01 02:44:19;;;;;;;12.77;7.23;;;18.10;99.90;;;;;;4977620;28;20607;-77
2021/09/01 02:46:45;;;;;;;11.53;7.90;;;18.10;99.90;;;;;;5011339;28;21129;-77
2021/09/01 02:49:12;;;;;;;7.90;5.83;;;18.10;99.90;;;;;;5011352;28;20612;-77
2021/09/01 02:51:38;;;;;;;9.07;6.00;;;18.10;99.90;;;;;;5010616;28;20740;-77
2021/09/01 02:54:04;;;;;;;8.30;5.73;;;18.10;99.90;;;;;;5011361;28;20616;-77
2021/09/01 02:56:30;;;;;;;9.33;5.80;;;18.20;99.90;;;;;;5011233;28;20565;-77
2021/09/01 02:58:56;;;;;;;8.53;6.37;;;18.20;99.90;;;;;;5011000;28;20716;-76
2021/09/01 03:01:22;;;;;;;7.60;6.37;;;18.20;99.90;;;;;;5011529;28;21152;-77
2021/09/01 03:03:47;;;;;;;10.00;6.10;;;18.20;99.90;;;;;;5010918;28;20198;-77
2021/09/01 03:06:13;;;;;;;14.80;7.83;;;18.20;99.90;;;;;;5010540;28;20485;-77
2021/09/01 03:08:39;;;;;;;7.63;6.20;;;18.10;99.90;;;;;;5010967;28;20556;-77
2021/09/01 03:11:05;;;;;;;9.70;6.67;;;18.20;99.90;;;;;;5010387;28;20189;-77
2021/09/01 03:13:32;;;;;;;7.53;6.50;;;18.20;99.90;;;;;;5010970;28;20732;-77
2021/09/01 03:15:58;;;;;;;8.07;5.90;;;18.10;99.90;;;;;;4993331;28;20589;-77
2021/09/01 03:18:23;;;;;;;9.30;6.20;;;18.10;99.90;;;;;;4993892;28;20585;-76
2021/09/01 03:20:49;;;;;;;11.43;6.63;;;18.10;99.90;;;;;;5011580;28;20170;-77
2021/09/01 03:23:15;;;;;;;10.53;6.97;;;18.10;99.90;;;;;;4993992;28;20190;-77
2021/09/01 03:25:41;;;;;;;10.40;6.87;;;18.10;99.90;;;;;;5019174;28;20667;-77
2021/09/01 03:28:06;;;;;;;7.83;5.97;;;18.10;99.90;;;;;;5022130;28;20217;-77
2021/09/01 03:30:32;;;;;;;9.60;6.57;;;18.10;99.90;;;;;;5004906;28;20166;-77
2021/09/01 03:32:58;;;;;;;10.50;7.50;;;18.10;99.90;;;;;;5022552;28;20206;-77
2021/09/01 03:35:24;;;;;;;7.40;4.60;;;18.10;99.90;;;;;;5053858;23;20214;-81
2021/09/01 03:37:50;;;;;;;9.00;5.83;;;18.10;99.90;;;;;;5040451;28;20584;-80
2021/09/01 03:40:16;;;;;;;9.83;6.30;;;18.10;99.90;;;;;;5005743;28;20633;-80
2021/09/01 03:42:42;;;;;;;8.50;5.80;;;18.10;99.90;;;;;;5021631;28;20620;-79
2021/09/01 03:45:09;;;;;;;11.50;6.23;;;18.10;99.90;;;;;;5005801;28;20190;-80
2021/09/01 03:47:35;;;;;;;9.90;6.07;;;18.10;99.90;;;;;;5000786;28;20573;-80
2021/09/01 03:50:02;;;;;;;8.00;5.77;;;18.10;99.90;;;;;;5019483;28;20926;-80
2021/09/01 03:52:28;;;;;;;9.50;6.03;;;18.10;99.90;;;;;;5017981;28;20241;-80
2021/09/01 03:54:54;;;;;;;7.97;5.77;;;18.10;99.90;;;;;;4999708;28;20624;-80
2021/09/01 03:57:19;;;;;;;11.13;6.50;;;18.10;99.90;;;;;;5018362;28;20241;-80
2021/09/01 03:59:45;;;;;;;9.50;6.10;;;18.10;99.90;;;;;;5000801;28;20182;-80
2021/09/01 04:02:11;;;;;;;10.40;6.50;;;18.10;99.90;;;;;;5018145;28;20174;-80
2021/09/01 04:04:37;;;;;;;9.13;6.27;;;18.10;99.90;;;;;;4996964;28;20206;-80
2021/09/01 04:07:06;;;;;;;10.43;6.03;;;18.10;99.90;;;;;;4996761;28;20179;-81
2021/09/01 04:09:32;;;;;;;8.00;5.23;;;18.10;99.90;;;;;;4999640;28;20635;-80
2021/09/01 04:11:58;;;;;;;6.50;5.07;;;18.10;99.90;;;;;;5013606;28;20565;-81
2021/09/01 04:14:24;;;;;;;11.27;5.00;;;18.10;99.90;;;;;;5014564;28;20573;-80
2021/09/01 04:16:50;;;;;;;6.83;5.30;;;18.10;99.90;;;;;;5012768;28;20170;-81
2021/09/01 04:19:16;;;;;;;6.77;5.23;;;18.10;99.90;;;;;;5014018;28;20198;-81
2021/09/01 04:21:42;;;;;;;6.80;4.60;;;18.00;99.90;;;;;;5013122;28;21111;-81
2021/09/01 04:24:08;;;;;;;10.20;5.30;;;18.00;99.90;;;;;;4996391;28;20179;-81
2021/09/01 04:26:34;;;;;;;7.60;5.47;;;18.00;99.90;;;;;;5012484;28;20186;-80
2021/09/01 04:28:59;;;;;;;8.67;5.23;;;18.00;99.90;;;;;;5013854;28;20166;-81
2021/09/01 04:31:25;;;;;;;6.03;4.50;;;18.00;99.90;;;;;;5012343;28;20258;-80
2021/09/01 04:33:51;;;;;;;5.83;5.20;;;18.00;99.90;;;;;;5013761;28;20624;-80
2021/09/01 04:36:18;;;;;;;8.27;5.80;;;18.00;99.90;;;;;;5012220;28;20198;-80
2021/09/01 04:38:44;;;;;;;6.70;4.40;;;18.10;99.90;;;;;;5012740;28;20197;-79
2021/09/01 04:41:10;;;;;;;9.80;5.30;;;18.10;99.90;;;;;;5012699;28;20586;-80
2021/09/01 04:43:35;;;;;;;9.93;5.73;;;18.10;99.90;;;;;;5013979;28;20268;-80
2021/09/01 04:46:01;;;;;;;7.87;4.80;;;18.10;99.90;;;;;;5017979;28;20621;-81
2021/09/01 04:48:27;;;;;;;6.27;4.93;;;18.10;99.90;;;;;;4980082;28;20179;-81
2021/09/01 04:50:53;;;;;;;7.37;5.10;;;18.10;99.90;;;;;;5012585;28;20660;-82
2021/09/01 04:53:19;;;;;;;10.20;6.77;;;18.10;99.90;;;;;;5013332;28;20217;-81
2021/09/01 04:55:46;;;;;;;8.10;5.57;;;18.10;99.90;;;;;;4995587;28;20609;-81
2021/09/01 04:58:13;;;;;;;10.07;5.30;;;18.10;99.90;;;;;;5013702;28;20561;-81
2021/09/01 05:00:39;;;;;;;5.10;4.10;;;18.10;99.90;;;;;;4995854;28;20581;-81
2021/09/01 05:03:05;;;;;;;9.40;5.33;;;18.10;99.90;;;;;;4979743;28;20600;-81
2021/09/01 05:05:31;;;;;;;8.57;5.37;;;18.10;99.90;;;;;;4995588;28;20197;-81
2021/09/01 05:07:57;;;;;;;9.07;6.00;;;18.10;99.90;;;;;;5013856;28;20948;-81
2021/09/01 05:10:23;;;;;;;9.60;6.57;;;18.10;99.90;;;;;;4995821;28;20574;-81
2021/09/01 05:12:49;;;;;;;9.33;5.27;;;18.10;99.90;;;;;;5011972;28;20613;-81
2021/09/01 05:15:15;;;;;;;6.30;4.47;;;18.10;99.90;;;;;;4995674;28;20859;-81
2021/09/01 05:17:42;;;;;;;11.30;4.43;;;18.10;99.90;;;;;;4979274;28;20651;-81
2021/09/01 05:20:09;;;;;;;7.13;5.40;;;18.10;99.90;;;;;;5011935;28;20982;-81
2021/09/01 05:22:37;;;;;;;9.20;6.40;;;18.10;99.90;;;;;;5018248;28;20584;-80
2021/09/01 05:25:12;;;;;;;9.77;5.43;;;18.10;99.90;;;;;;5013079;28;20755;-80
2021/09/01 05:27:40;;;;;;;6.20;5.20;;;18.10;99.90;;;;;;5011711;28;20619;-81
2021/09/01 05:30:12;;;;;;;8.00;5.40;;;18.10;99.90;;;;;;4995208;28;20584;-80
2021/09/01 05:32:40;;;;;;;7.30;5.30;;;18.10;99.90;;;;;;5012919;28;20613;-81
2021/09/01 05:35:07;;;;;;;8.83;5.27;;;18.20;99.90;;;;;;5012460;28;20617;-81
2021/09/01 05:37:33;;;;;;;6.40;4.60;;;18.10;99.90;;;;;;5011426;28;20676;-80
2021/09/01 05:40:01;;;;;;;7.43;4.90;;;18.20;99.90;;;;;;5012881;28;21200;-80
2021/09/01 05:42:29;;;;;;;7.57;5.47;;;18.20;99.90;;;;;;5012983;28;20604;-80
2021/09/01 05:44:56;;;;;;;7.73;6.07;;;18.20;99.90;;;;;;5010972;28;20597;-80
2021/09/01 05:47:24;;;;;;;10.37;6.03;;;18.20;99.90;;;;;;4994285;28;20577;-80
2021/09/01 05:49:51;;;;;;;9.33;6.10;;;18.20;99.90;;;;;;4995112;28;20558;-81
2021/09/01 05:52:19;;;;;;;8.83;6.07;;;18.20;99.90;;;;;;5012331;28;20639;-79
2021/09/01 05:54:52;;;;;;;11.50;6.97;;;18.20;99.90;;;;;;5012623;28;20654;-80
2021/09/01 05:57:19;;;;;;;9.10;5.93;;;18.20;99.90;;;;;;4994846;28;20573;-80
2021/09/01 06:00:16;;;;;;;12.90;7.60;;;18.20;99.90;;;;;;5017683;28;20615;-79
2021/09/01 06:02:53;;;;;;;11.40;7.03;;;18.20;99.90;;;;;;5006233;28;20688;-80
2021/09/01 06:05:23;;;;;;;12.77;7.17;;;18.30;99.90;;;;;;5010890;28;20609;-80
2021/09/01 06:07:57;;;;;;;8.50;7.10;;;18.30;99.90;;;;;;5010917;28;20561;-79
2021/09/01 06:10:30;;;;;;;11.00;7.87;;;18.30;99.90;;;;;;4994714;28;20600;-81
2021/09/01 06:13:04;;;;;;;13.83;8.00;;;18.30;99.90;;;;;;5012333;28;20732;-81
2021/09/01 06:15:31;;;;;;;12.97;7.67;;;18.40;99.90;;;;;;4994299;28;20651;-81
2021/09/01 06:17:58;;;;;;;9.13;7.63;;;18.40;99.90;;;;;;5010929;28;20577;-81
2021/09/01 06:20:24;;;;;;;10.47;7.83;;;18.50;99.90;;;;;;4994516;28;20624;-81
2021/09/01 06:22:50;;;;;;;9.23;7.30;;;18.50;99.90;;;;;;5011819;28;20569;-81
2021/09/01 06:25:15;;;;;;;10.50;6.80;;;18.50;99.90;;;;;;5010695;28;20289;-80
2021/09/01 06:27:41;;;;;;;13.60;7.83;;;18.60;99.90;;;;;;4993882;28;20588;-80
2021/09/01 06:30:07;;;;;;;15.00;9.00;;;18.60;99.90;;;;;;5011977;28;20651;-80
2021/09/01 06:32:33;;;;;;;10.10;8.73;;;18.60;99.90;;;;;;5011907;28;20273;-80
2021/09/01 06:34:59;;;;;;;10.13;7.87;;;18.70;99.90;;;;;;5012042;28;20612;-80
2021/09/01 06:37:25;;;;;;;9.17;7.77;;;18.70;99.90;;;;;;4997444;28;20569;-80
2021/09/01 06:39:53;;;;;;;11.90;9.27;;;18.70;99.90;;;;;;5011796;28;20201;-80
2021/09/01 06:42:19;;;;;;;12.20;8.00;;;18.80;99.90;;;;;;5010975;28;20209;-80
2021/09/01 06:44:45;;;;;;;10.90;9.73;;;18.80;99.90;;;;;;5011559;28;20637;-80
2021/09/01 06:47:11;;;;;;;14.30;8.80;;;18.80;99.90;;;;;;5010966;28;20980;-80
2021/09/01 06:49:36;;;;;;;11.43;7.70;;;18.90;99.90;;;;;;4993896;28;21374;-79
2021/09/01 06:52:03;;;;;;;11.47;8.33;;;18.90;99.90;;;;;;5011454;28;20170;-80
2021/09/01 06:54:29;;;;;;;10.53;8.40;;;18.90;99.90;;;;;;5011515;28;20167;-81
2021/09/01 06:56:54;;;;;;;10.40;8.97;;;19.00;99.90;;;;;;5010224;28;20990;-81
2021/09/01 06:59:20;;;;;;;11.73;7.83;;;19.00;99.90;;;;;;5011546;28;20166;-80
2021/09/01 07:01:46;;;;;;;17.40;9.60;;;19.10;99.90;;;;;;5015661;28;20162;-81
2021/09/01 07:04:11;;;;;;;11.67;7.47;;;19.10;99.90;;;;;;5014579;28;20252;-80
2021/09/01 07:06:37;;;;;;;11.77;7.70;;;19.20;99.90;;;;;;4997909;28;20202;-80
2021/09/01 07:09:03;;;;;;;10.13;8.43;;;19.20;99.90;;;;;;5016173;28;20166;-80
2021/09/01 07:11:28;;;;;;;8.93;6.60;;;19.20;99.90;;;;;;5014193;28;20181;-80
2021/09/01 07:13:54;;;;;;;8.53;6.37;;;19.30;99.90;;;;;;5019579;28;20560;-79
2021/09/01 07:16:20;;;;;;;9.20;6.53;;;19.30;99.90;;;;;;5015203;28;20662;-80
2021/09/01 07:18:45;;;;;;;9.90;6.43;;;19.40;99.90;;;;;;4997437;28;20170;-81
2021/09/01 07:21:12;;;;;;;10.60;7.50;;;19.40;99.90;;;;;;5014059;28;20193;-81
2021/09/01 07:23:39;;;;;;;10.47;7.37;;;19.50;99.90;;;;;;5014770;28;20174;-81
2021/09/01 07:26:04;;;;;;;9.53;6.80;;;19.50;99.90;;;;;;4981090;28;20639;-82
2021/09/01 07:28:30;;;;;;;9.60;6.40;;;19.50;99.90;;;;;;5013526;28;21120;-81
2021/09/01 07:30:56;;;;;;;10.07;6.63;;;19.50;99.90;;;;;;4997619;28;20569;-81
2021/09/01 07:33:22;;;;;;;10.03;6.40;;;19.60;99.90;;;;;;5014952;28;20194;-81
2021/09/01 07:35:48;;;;;;;10.93;6.07;;;19.60;99.90;;;;;;5013188;28;20198;-81
2021/09/01 07:38:14;;;;;;;10.67;6.83;;;19.60;99.90;;;;;;5014933;28;20573;-82
2021/09/01 07:40:41;;;;;;;9.47;6.40;;;19.60;99.90;;;;;;4997126;28;20174;-81
2021/09/01 07:43:07;;;;;;;10.17;6.67;;;19.70;99.90;;;;;;4997490;28;20671;-82
2021/09/01 07:45:32;;;;;;;8.03;6.77;;;19.70;99.90;;;;;;5013052;28;21163;-81
2021/09/01 07:47:58;;;;;;;12.20;8.33;;;19.70;99.90;;;;;;5014927;28;20206;-81
2021/09/01 07:50:27;;;;;;;13.50;9.03;;;19.80;99.90;;;;;;5019725;28;20342;-81
2021/09/01 07:52:53;;;;;;;12.70;8.10;;;19.80;99.90;;;;;;5014796;28;20542;-81
2021/09/01 07:55:19;;;;;;;10.27;7.33;;;19.80;99.90;;;;;;5014408;28;20664;-81
2021/09/01 07:57:44;;;;;;;8.70;7.80;;;19.80;99.90;;;;;;5014574;28;20577;-81
2021/09/01 08:00:11;;;;;;;12.30;8.90;;;19.90;99.90;;;;;;5014508;28;20620;-82
2021/09/01 08:02:37;;;;;;;12.17;9.30;;;19.90;99.90;;;;;;4997115;28;20672;-81
2021/09/01 08:05:04;;;;;;;10.17;8.03;;;19.90;99.90;;;;;;5012984;28;20605;-81
2021/09/01 08:07:30;;;;;;;11.73;9.50;;;20.00;99.90;;;;;;5014331;28;20562;-81
2021/09/01 08:09:56;;;;;;;8.73;7.83;;;20.10;99.90;;;;;;5014232;28;20605;-81
2021/09/01 08:12:22;;;;;;;10.57;7.37;;;20.10;99.90;;;;;;5013826;28;20198;-81
2021/09/01 08:14:48;;;;;;;9.53;8.63;;;20.10;99.90;;;;;;5012911;28;20616;-82
2021/09/01 08:17:14;;;;;;;12.97;8.33;;;20.20;99.90;;;;;;5012962;28;20569;-82
2021/09/01 08:19:44;;;;;;;11.37;7.50;;;20.20;99.90;;;;;;5014156;28;20545;-82
2021/09/01 08:22:11;;;;;;;8.23;7.43;;;20.30;99.90;;;;;;5014515;28;20584;-82
2021/09/01 08:24:38;;;;;;;10.93;7.43;;;20.30;99.90;;;;;;4996821;28;20628;-82
2021/09/01 08:27:08;;;;;;;10.00;5.93;;;20.40;99.90;;;;;;5016009;28;20573;-81
2021/09/01 08:29:35;;;;;;;6.97;5.70;;;20.40;99.90;;;;;;5014557;28;20569;-81
2021/09/01 08:32:02;;;;;;;8.37;5.57;;;20.50;99.90;;;;;;5012684;28;21139;-81
2021/09/01 08:34:27;;;;;;;7.30;5.17;;;20.50;99.90;;;;;;5012829;28;20983;-82
2021/09/01 08:36:53;;;;;;;8.73;5.80;;;20.50;99.90;;;;;;5013530;28;20627;-82
2021/09/01 08:39:19;;;;;;;7.27;6.00;;;20.60;99.90;;;;;;4996726;28;20245;-82
2021/09/01 08:41:46;;;;;;;12.03;5.50;;;20.60;99.90;;;;;;5013895;28;20944;-81
2021/09/01 08:44:12;;;;;;;6.50;5.10;;;20.60;99.90;;;;;;5014240;28;20573;-82
2021/09/01 08:46:39;;;;;;;7.53;5.40;;;20.60;99.90;;;;;;5013525;28;20660;-82
2021/09/01 08:49:05;;;;;;;8.97;5.40;;;20.60;99.90;;;;;;5013927;28;21141;-82
2021/09/01 08:51:31;;;;;;;5.63;3.90;;;20.70;99.90;;;;;;4996275;28;20632;-82
2021/09/01 08:53:58;;;;;;;7.00;4.40;;;20.70;99.90;;;;;;5013938;28;20202;-82
2021/09/01 08:56:25;;;;;;;5.60;5.00;;;20.70;99.90;;;;;;4979384;28;20605;-81
2021/09/01 08:58:51;;;;;;;7.20;5.30;;;20.70;99.90;;;;;;5013840;28;20562;-82
2021/09/01 09:01:46;;;;;;;6.50;5.20;;;20.80;99.90;;;;;;5013732;28;20572;-82
2021/09/01 09:04:24;;;;;;;7.53;4.87;;;20.80;99.90;;;;;;4998042;28;20572;-81
2021/09/01 09:06:56;;;;;;;7.37;5.07;;;20.90;99.90;;;;;;4996654;28;20573;-82
2021/09/01 09:09:25;;;;;;;7.70;6.20;;;20.90;99.90;;;;;;5013613;28;20573;-81
2021/09/01 09:11:51;;;;;;;8.60;5.93;;;20.90;99.90;;;;;;4995480;28;21152;-81
2021/09/01 09:14:23;;;;;;;7.60;5.40;;;21.00;99.90;;;;;;4996817;28;20593;-82
2021/09/01 09:17:10;;;;;;;6.57;4.93;;;21.00;99.90;;;;;;5013295;28;20576;-82
2021/09/01 09:19:55;;;;;;;6.83;4.20;;;21.00;99.90;;;;;;5013951;28;21210;-82
2021/09/01 09:22:31;;;;;;;6.23;4.50;;;21.00;99.90;;;;;;5012306;28;20585;-81
2021/09/01 09:25:01;;;;;;;5.17;4.47;;;21.10;99.90;;;;;;5013303;28;20596;-81
2021/09/01 09:27:48;;;;;;;5.20;4.40;;;21.20;99.90;;;;;;4994992;28;20724;-82
2021/09/01 09:30:19;;;;;;;6.83;6.13;;;21.20;99.90;;;;;;5013323;28;20565;-82
2021/09/01 09:33:29;;;;;;;5.10;4.57;;;21.20;99.90;;;;;;5012883;28;20660;-82
2021/09/01 09:35:58;;;;;;;5.10;4.60;;;21.30;99.90;;;;;;4980846;28;20629;-79
2021/09/01 09:38:45;;;;;;;7.20;4.93;;;21.40;99.90;;;;;;4998396;28;20561;-79
2021/09/01 09:41:24;;;;;;;5.50;5.00;;;21.40;99.90;;;;;;5019144;28;20624;-80
2021/09/01 09:43:52;;;;;;;4.90;4.00;;;21.40;99.90;;;;;;5013762;28;20937;-80
2021/09/01 09:46:20;;;;;;;6.97;5.50;;;21.50;99.90;;;;;;4980897;28;20641;-80
2021/09/01 09:48:47;;;;;;;7.90;5.70;;;21.50;99.90;;;;;;5014293;28;20581;-80
2021/09/01 09:51:17;;;;;;;8.03;5.63;;;21.50;99.90;;;;;;4997323;28;20636;-80
2021/09/01 09:53:44;;;;;;;6.37;5.70;;;21.60;99.90;;;;;;5014032;28;20628;-80
2021/09/01 09:56:17;;;;;;;8.60;5.47;;;21.60;99.90;;;;;;5013928;28;20597;-80
2021/09/01 09:58:46;;;;;;;6.77;5.50;;;21.70;99.90;;;;;;5014391;28;20628;-80
2021/09/01 10:01:13;;;;;;;7.37;5.50;;;21.70;99.90;;;;;;5013003;28;20581;-80
2021/09/01 10:03:39;;;;;;;6.80;6.10;;;21.70;99.90;;;;;;5014631;28;20652;-80
2021/09/01 10:06:07;;;;;;;7.87;5.60;;;21.80;99.90;;;;;;5012794;28;20655;-80
2021/09/01 10:08:35;;;;;;;10.23;5.10;;;21.80;99.90;;;;;;4996845;28;20577;-80
2021/09/01 10:11:09;;;;;;;6.27;4.80;;;21.80;99.90;;;;;;5014643;28;20573;-80
2021/09/01 10:13:40;;;;;;;5.70;4.97;;;21.80;99.90;;;;;;5015436;28;20632;-80
2021/09/01 10:16:24;;;;;;;5.27;4.77;;;21.80;99.90;;;;;;4999475;28;20617;-80
2021/09/01 10:19:02;;;;;;;5.20;4.67;;;21.80;99.90;;;;;;5018582;28;20588;-79
2021/09/01 10:21:33;;;;;;;8.63;5.70;;;21.80;99.90;;;;;;5016308;28;20561;-80
2021/09/01 10:24:35;;;;;;;5.43;4.83;;;21.80;99.90;;;;;;4996040;28;20922;-80
2021/09/01 10:27:12;;;;;;;7.67;6.40;;;21.70;99.90;;;;;;5012497;28;20569;-80
2021/09/01 10:29:44;;;;;;;7.43;5.90;;;21.70;99.90;;;;;;5012610;28;20781;-80
2021/09/01 10:32:34;;;;;;;9.20;7.70;;;21.70;99.90;;;;;;5013686;28;20581;-80
2021/09/01 10:35:19;;;;;;;8.20;7.30;;;21.70;99.90;;;;;;5013334;28;20675;-80
2021/09/01 10:37:53;;;;;;;7.27;5.70;;;21.70;99.90;;;;;;5012823;28;20578;-79
2021/09/01 10:40:23;;;;;;;9.87;6.40;;;21.80;99.90;;;;;;5013706;28;20857;-79
2021/09/01 10:43:16;;;;;;;7.43;6.10;;;21.80;99.90;;;;;;5014862;28;20996;-79
2021/09/01 10:45:48;;;;;;;7.67;6.13;;;21.80;99.90;;;;;;5014117;28;20601;-80
2021/09/01 10:48:14;;;;;;;7.97;5.47;;;21.90;99.90;;;;;;5016699;28;20573;-80
2021/09/01 10:50:47;;;;;;;8.40;6.30;;;22.00;99.90;;;;;;5016542;28;20569;-80
2021/09/01 10:53:27;;;;;;;8.07;5.33;;;22.00;99.90;;;;;;5015881;28;20633;-80
2021/09/01 10:56:05;;;;;;;6.93;5.17;;;22.10;99.90;;;;;;5015321;28;20976;-80
2021/09/01 10:58:36;;;;;;;9.17;5.50;;;22.20;99.90;;;;;;4996081;28;20608;-80
2021/09/01 11:01:13;;;;;;;8.77;6.13;;;22.20;99.90;;;;;;4996115;28;20629;-80
2021/09/01 11:03:50;;;;;;;8.20;5.83;;;22.20;99.90;;;;;;5015407;28;20588;-80
2021/09/01 11:06:18;;;;;;;7.40;5.93;;;22.20;99.90;;;;;;4994421;28;20624;-80
2021/09/01 11:08:56;;;;;;;8.10;6.27;;;22.20;99.90;;;;;;5012551;28;20600;-80
2021/09/01 11:11:21;;;;;;;15.17;6.80;;;22.20;99.90;;;;;;4999779;28;20702;-81
2021/09/01 11:13:50;;;;;;;10.13;6.83;;;22.10;99.90;;;;;;4996071;28;21010;-80
2021/09/01 11:16:20;;;;;;;8.03;7.07;;;22.10;99.90;;;;;;5016826;28;20197;-79
2021/09/01 11:19:05;;;;;;;7.60;5.90;;;22.10;99.90;;;;;;5016135;28;20566;-79
2021/09/01 11:21:33;;;;;;;6.50;5.80;;;22.10;99.90;;;;;;5000449;28;20656;-80
2021/09/01 11:24:00;;;;;;;12.83;7.47;;;22.10;99.90;;;;;;4999797;28;20573;-79
2021/09/01 11:26:28;;;;;;;10.67;7.70;;;22.10;99.90;;;;;;5017632;28;20637;-79
2021/09/01 11:28:54;;;;;;;8.53;7.60;;;22.10;99.90;;;;;;4997735;28;20585;-79
2021/09/01 11:31:20;;;;;;;9.23;7.30;;;22.10;99.90;;;;;;5017256;28;20604;-79
2021/09/01 11:33:46;;;;;;;11.90;8.60;;;22.10;99.90;;;;;;4997503;28;20237;-79
2021/09/01 11:36:12;;;;;;;9.97;8.03;;;22.00;99.90;;;;;;5012578;28;21379;-79
2021/09/01 11:38:49;;;;;;;9.53;8.13;;;22.00;99.90;;;;;;5014573;28;20666;-79
2021/09/01 11:41:22;;;;;;;10.57;9.47;;;22.00;99.90;;;;;;4996356;28;20181;-79
2021/09/01 11:44:00;;;;;;;11.40;9.87;;;22.00;99.90;;;;;;4996617;28;20581;-79
2021/09/01 11:46:31;;;;;;;11.73;10.63;;;22.00;99.90;;;;;;4995643;28;21191;-79
2021/09/01 11:49:06;;;;;;;11.23;9.97;;;22.00;99.90;;;;;;5002331;28;20569;-80
2021/09/01 11:51:32;;;;;;;11.17;9.90;;;22.00;99.90;;;;;;5020335;28;20664;-80
2021/09/01 11:53:59;;;;;;;15.70;9.80;;;22.00;99.90;;;;;;5002429;28;20632;-80
2021/09/01 11:56:26;;;;;;;12.27;8.73;;;22.00;99.90;;;;;;5017382;28;20641;-80
2021/09/01 11:59:10;;;;;;;14.40;9.57;;;21.90;99.90;;;;;;5016156;28;20588;-80
2021/09/01 12:01:42;;;;;;;14.57;9.63;;;21.90;99.90;;;;;;4984924;28;20910;-80
2021/09/01 12:04:08;;;;;;;14.37;9.57;;;21.90;99.90;;;;;;5017956;28;20732;-80
2021/09/01 12:06:38;;;;;;;13.17;9.97;;;21.80;99.90;;;;;;5018380;28;20628;-80
2021/09/01 12:09:05;;;;;;;14.13;9.47;;;21.80;99.90;;;;;;5006307;28;20178;-80
2021/09/01 12:11:32;;;;;;;12.30;8.90;;;21.70;99.90;;;;;;5019392;28;20669;-80
2021/09/01 12:14:07;;;;;;;11.70;9.87;;;21.60;99.90;;;;;;5021058;28;20628;-81
2021/09/01 12:16:33;;;;;;;12.50;10.00;;;21.60;99.90;;;;;;5024250;28;20643;-79
2021/09/01 12:19:07;;;;;;;12.87;9.70;;;21.50;99.90;;;;;;5020425;28;20959;-80
2021/09/01 12:21:53;;;;;;;12.07;10.43;;;21.50;99.90;;;;;;5020721;28;20982;-80
2021/09/01 12:24:27;;;;;;;15.60;9.20;;;21.40;99.90;;;;;;5018188;28;20964;-80
2021/09/01 12:26:56;;;;;;;11.00;9.37;;;21.40;99.90;;;;;;4998506;28;20983;-80
2021/09/01 12:29:36;;;;;;;13.07;10.60;;;21.30;99.90;;;;;;5015585;28;20929;-79
2021/09/01 12:32:07;;;;;;;13.80;10.00;;;21.20;99.90;;;;;;5013863;28;20569;-80
2021/09/01 12:34:43;;;;;;;12.27;9.50;;;21.20;99.90;;;;;;5014688;28;20631;-79
2021/09/01 12:37:24;;;;;;;11.37;8.60;;;21.10;99.90;;;;;;4997283;28;20569;-79
2021/09/01 12:39:58;;;;;;;11.77;9.20;;;21.00;99.90;;;;;;5014746;28;20672;-79
2021/09/01 12:42:44;;;;;;;11.63;9.37;;;21.00;99.90;;;;;;5014615;28;20573;-79
2021/09/01 12:45:15;;;;;;;12.27;7.83;;;20.90;99.90;;;;;;5014922;28;20616;-79
2021/09/01 12:47:59;;;;;;;11.10;8.30;;;20.90;99.90;;;;;;5000067;28;20601;-80
2021/09/01 12:50:35;;;;;;;12.70;9.40;;;20.80;99.90;;;;;;5016373;28;20577;-80